Time;durP1;ratioP1;P1;durP2;ratioP2;P2;SDS_P1;SDS_P2;PMS_P1;PMS_P2;Temp;Humidity;BMP_temperature;BMP_pressure;BME280_temperature;BME280_humidity;BME280_pressure;Samples;Min_cycle;Max_cycle;Signal;HPM_P1;HPM_P2
2023/02/03 00:01:44;;;;;;;11.17;7.57;;;9.70;99.90;;;;;;5096895;28;20819;-58
2023/02/03 00:04:12;;;;;;;10.93;6.30;;;9.70;99.90;;;;;;5096439;28;20467;-58
2023/02/03 00:06:40;;;;;;;8.40;6.50;;;9.70;99.90;;;;;;5096907;28;20432;-58
2023/02/03 00:09:06;;;;;;;13.07;6.23;;;9.70;99.90;;;;;;5096529;28;20467;-58
2023/02/03 00:11:33;;;;;;;11.17;6.50;;;9.60;99.90;;;;;;5096674;28;20511;-58
2023/02/03 00:14:00;;;;;;;13.70;7.33;;;9.60;99.90;;;;;;5096628;28;20462;-57
2023/02/03 00:16:26;;;;;;;10.80;7.03;;;9.70;99.90;;;;;;5096651;28;20450;-58
2023/02/03 00:18:53;;;;;;;13.07;7.00;;;9.60;99.90;;;;;;5096619;28;20458;-58
2023/02/03 00:21:21;;;;;;;10.53;5.70;;;9.60;99.90;;;;;;5096268;28;20817;-58
2023/02/03 00:23:48;;;;;;;6.53;5.90;;;9.60;99.90;;;;;;5096406;28;20467;-58
2023/02/03 00:26:17;;;;;;;7.17;6.20;;;9.60;99.90;;;;;;5096448;28;20455;-58
2023/02/03 00:28:45;;;;;;;6.70;6.00;;;9.60;99.90;;;;;;5096449;28;20451;-58
2023/02/03 00:31:16;;;;;;;6.93;5.60;;;9.60;99.90;;;;;;5096172;28;20544;-57
2023/02/03 00:33:43;;;;;;;10.10;5.73;;;9.60;99.90;;;;;;5095918;28;20500;-58
2023/02/03 00:36:11;;;;;;;11.83;6.50;;;9.60;99.90;;;;;;5096238;28;20456;-58
2023/02/03 00:38:39;;;;;;;9.57;5.57;;;9.60;99.90;;;;;;5096254;28;20436;-58
2023/02/03 00:41:07;;;;;;;9.57;5.60;;;9.60;99.90;;;;;;5096747;28;20446;-58
2023/02/03 00:43:34;;;;;;;10.27;5.77;;;9.60;99.90;;;;;;5095990;28;20886;-58
2023/02/03 00:46:01;;;;;;;6.07;4.90;;;9.60;99.90;;;;;;5096178;28;20451;-58
2023/02/03 00:48:27;;;;;;;9.23;5.20;;;9.60;99.90;;;;;;5096005;28;20454;-58
2023/02/03 00:50:54;;;;;;;9.27;4.97;;;9.60;99.90;;;;;;5095923;28;20804;-58
2023/02/03 00:53:21;;;;;;;7.17;4.67;;;9.60;99.90;;;;;;5095762;28;20464;-57
2023/02/03 00:55:49;;;;;;;13.43;5.47;;;9.70;99.90;;;;;;5095915;28;20455;-58
2023/02/03 00:58:16;;;;;;;10.60;5.23;;;9.60;99.90;;;;;;5095493;28;20959;-58
2023/02/03 01:00:42;;;;;;;10.37;5.20;;;9.70;99.90;;;;;;5095755;28;20450;-57
2023/02/03 01:03:09;;;;;;;14.63;5.63;;;9.70;99.90;;;;;;5095613;28;20475;-57
2023/02/03 01:05:36;;;;;;;10.97;4.87;;;9.70;99.90;;;;;;5095711;28;20535;-58
2023/02/03 01:08:04;;;;;;;9.57;5.13;;;9.70;99.90;;;;;;5094476;28;20447;-58
2023/02/03 01:10:31;;;;;;;9.17;4.90;;;9.70;99.90;;;;;;5095992;28;20428;-58
2023/02/03 01:12:59;;;;;;;8.20;3.90;;;9.70;99.90;;;;;;5095183;28;21029;-57
2023/02/03 01:15:26;;;;;;;8.10;5.17;;;9.60;99.90;;;;;;5095516;28;20448;-58
2023/02/03 01:17:52;;;;;;;8.40;5.23;;;9.70;99.90;;;;;;5095388;28;20459;-58
2023/02/03 01:20:20;;;;;;;14.30;5.00;;;9.70;99.90;;;;;;5095469;28;20432;-58
2023/02/03 01:22:47;;;;;;;6.37;4.37;;;9.70;99.90;;;;;;5095270;28;20877;-57
2023/02/03 01:25:13;;;;;;;7.83;4.53;;;9.70;99.90;;;;;;5095327;28;20475;-59
2023/02/03 01:27:40;;;;;;;9.10;5.00;;;9.70;99.90;;;;;;5095284;28;20439;-58
2023/02/03 01:30:10;;;;;;;10.60;5.20;;;9.70;99.90;;;;;;5095250;28;20793;-58
2023/02/03 01:32:37;;;;;;;8.47;5.03;;;9.80;99.90;;;;;;5095014;28;20487;-58
2023/02/03 01:35:04;;;;;;;10.77;5.27;;;9.70;99.90;;;;;;5095055;28;20471;-58
2023/02/03 01:37:30;;;;;;;9.53;5.43;;;9.70;99.90;;;;;;5095095;28;20467;-58
2023/02/03 01:39:57;;;;;;;13.80;5.00;;;9.70;99.90;;;;;;5095059;28;20444;-58
2023/02/03 01:42:24;;;;;;;12.60;5.40;;;9.70;99.90;;;;;;5094948;28;20440;-58
2023/02/03 01:44:51;;;;;;;13.07;5.20;;;9.70;99.90;;;;;;5094818;28;20478;-57
2023/02/03 01:47:36;;;;;;;11.30;4.80;;;9.80;99.90;;;;;;5094876;28;20459;-58
2023/02/03 01:50:11;;;;;;;8.47;4.90;;;9.70;99.90;;;;;;5093587;28;20463;-58
2023/02/03 01:52:40;;;;;;;7.23;4.90;;;9.70;99.90;;;;;;5094250;28;20828;-58
2023/02/03 01:55:12;;;;;;;8.20;5.00;;;9.70;99.90;;;;;;5094486;28;20455;-58
2023/02/03 01:57:44;;;;;;;7.70;4.40;;;9.70;99.90;;;;;;5094765;28;20424;-58
2023/02/03 02:00:12;;;;;;;9.83;5.00;;;9.70;99.90;;;;;;5094644;28;20432;-59
2023/02/03 02:02:43;;;;;;;8.30;4.90;;;9.70;99.90;;;;;;5094684;28;20435;-58
2023/02/03 02:05:14;;;;;;;11.70;4.77;;;9.70;99.90;;;;;;5094307;28;20904;-59
2023/02/03 02:07:42;;;;;;;10.03;4.80;;;9.70;99.90;;;;;;5094560;28;20436;-59
2023/02/03 02:10:10;;;;;;;13.03;4.53;;;9.70;99.90;;;;;;5094101;28;20466;-59
2023/02/03 02:12:37;;;;;;;13.67;4.60;;;9.70;99.90;;;;;;5094202;28;20486;-58
2023/02/03 02:15:05;;;;;;;7.20;4.50;;;9.70;99.90;;;;;;5094210;28;20491;-58
2023/02/03 02:17:52;;;;;;;9.70;4.73;;;9.70;99.90;;;;;;5094973;28;20451;-58
2023/02/03 02:21:02;;;;;;;7.37;4.67;;;9.70;99.90;;;;;;5094239;28;20451;-58
2023/02/03 02:23:52;;;;;;;10.97;4.43;;;9.70;99.90;;;;;;5093581;28;20983;-58
2023/02/03 02:26:58;;;;;;;10.93;4.57;;;9.70;99.90;;;;;;5093864;28;20428;-59
2023/02/03 02:30:07;;;;;;;11.23;4.17;;;9.70;99.90;;;;;;5088650;28;20823;-59
2023/02/03 02:33:04;;;;;;;7.10;4.17;;;9.70;99.90;;;;;;5094160;28;20479;-58
2023/02/03 02:35:46;;;;;;;5.40;4.27;;;9.80;99.90;;;;;;5093850;28;20485;-59
2023/02/03 02:38:21;;;;;;;12.03;4.17;;;9.80;99.90;;;;;;5093722;28;20904;-59
2023/02/03 02:40:52;;;;;;;6.53;4.30;;;9.80;99.90;;;;;;5093565;28;20916;-58
2023/02/03 02:43:23;;;;;;;3.90;3.40;;;9.70;99.90;;;;;;5093789;28;20451;-58
2023/02/03 02:45:52;;;;;;;6.07;3.60;;;9.80;99.90;;;;;;5093526;28;20939;-58
2023/02/03 02:48:26;;;;;;;8.17;3.87;;;9.70;99.90;;;;;;5093821;28;20448;-58
2023/02/03 02:50:56;;;;;;;9.77;4.47;;;9.70;99.90;;;;;;5093788;28;20436;-59
2023/02/03 02:53:25;;;;;;;11.40;4.80;;;9.70;99.90;;;;;;5093670;28;20487;-58
2023/02/03 02:55:55;;;;;;;6.43;4.30;;;9.70;99.90;;;;;;5093724;28;20443;-58
2023/02/03 02:58:23;;;;;;;12.27;4.80;;;9.70;99.90;;;;;;5093409;28;21016;-59
2023/02/03 03:00:50;;;;;;;6.13;4.93;;;9.70;99.90;;;;;;5093690;28;20447;-59
2023/02/03 03:03:19;;;;;;;5.40;4.40;;;9.70;99.90;;;;;;5093269;28;20494;-58
2023/02/03 03:05:51;;;;;;;8.70;5.17;;;9.70;99.90;;;;;;5093524;28;20444;-59
2023/02/03 03:08:21;;;;;;;9.13;5.17;;;9.70;99.90;;;;;;5093503;28;20460;-59
2023/02/03 03:10:49;;;;;;;11.40;5.37;;;9.70;99.90;;;;;;5093563;28;20435;-58
2023/02/03 03:13:21;;;;;;;16.97;5.40;;;9.60;99.90;;;;;;5093521;28;20491;-57
2023/02/03 03:15:50;;;;;;;13.20;5.07;;;9.70;99.90;;;;;;5093673;28;20436;-58
2023/02/03 03:18:23;;;;;;;8.80;5.07;;;9.70;99.90;;;;;;5093567;28;20459;-58
2023/02/03 03:20:53;;;;;;;12.60;5.80;;;9.70;99.90;;;;;;5093562;28;20501;-58
2023/02/03 03:23:24;;;;;;;12.77;5.63;;;9.70;99.90;;;;;;5093330;28;20467;-58
2023/02/03 03:25:57;;;;;;;10.93;5.67;;;9.70;99.90;;;;;;5093203;28;20912;-59
2023/02/03 03:28:30;;;;;;;13.67;5.83;;;9.70;99.90;;;;;;5093167;28;20490;-58
2023/02/03 03:30:57;;;;;;;8.90;4.87;;;9.80;99.90;;;;;;5093393;28;20803;-59
2023/02/03 03:33:24;;;;;;;8.27;5.17;;;9.70;99.90;;;;;;5093293;28;20479;-59
2023/02/03 03:35:59;;;;;;;9.80;5.50;;;9.70;99.90;;;;;;5093554;28;20458;-58
2023/02/03 03:38:32;;;;;;;10.43;5.60;;;9.70;99.90;;;;;;5093494;28;20436;-59
2023/02/03 03:41:04;;;;;;;10.60;6.33;;;9.70;99.90;;;;;;5092944;28;20904;-59
2023/02/03 03:43:34;;;;;;;13.20;6.53;;;9.60;99.90;;;;;;5093198;28;20463;-58
2023/02/03 03:46:07;;;;;;;13.90;5.50;;;9.60;99.90;;;;;;5093215;28;20455;-59
2023/02/03 03:48:40;;;;;;;10.53;5.13;;;9.60;99.90;;;;;;5093051;28;20918;-59
2023/02/03 03:51:12;;;;;;;12.77;6.57;;;9.60;99.90;;;;;;5093089;28;20801;-59
2023/02/03 03:53:41;;;;;;;9.20;4.90;;;9.60;99.90;;;;;;5092769;28;20906;-58
2023/02/03 03:56:13;;;;;;;9.20;4.30;;;9.70;99.90;;;;;;5093927;28;20522;-59
2023/02/03 03:58:45;;;;;;;10.87;4.67;;;9.70;99.90;;;;;;5093228;28;20526;-59
2023/02/03 04:01:14;;;;;;;11.33;4.90;;;9.60;99.90;;;;;;5092987;28;20783;-58
2023/02/03 04:03:45;;;;;;;10.57;5.07;;;9.60;99.90;;;;;;5093027;28;20479;-58
2023/02/03 04:06:13;;;;;;;11.70;4.63;;;9.60;99.90;;;;;;5092880;28;20862;-58
2023/02/03 04:08:40;;;;;;;15.13;5.67;;;9.70;99.90;;;;;;5092899;28;20459;-59
2023/02/03 04:11:07;;;;;;;13.20;4.93;;;9.70;99.90;;;;;;5092719;28;20801;-59
2023/02/03 04:13:34;;;;;;;8.20;6.13;;;9.60;99.90;;;;;;5092860;28;20491;-58
2023/02/03 04:16:01;;;;;;;9.17;5.07;;;9.60;99.90;;;;;;5093136;28;20448;-58
2023/02/03 04:18:27;;;;;;;11.37;4.87;;;9.60;99.90;;;;;;5095609;28;20818;-59
2023/02/03 04:20:54;;;;;;;10.50;5.67;;;9.60;99.90;;;;;;5096616;28;20451;-59
2023/02/03 04:23:22;;;;;;;9.30;4.63;;;9.60;99.90;;;;;;5096156;28;20805;-58
2023/02/03 04:25:49;;;;;;;9.60;4.67;;;9.50;99.90;;;;;;5096306;28;20448;-58
2023/02/03 04:28:16;;;;;;;7.30;4.13;;;9.60;99.90;;;;;;5096489;28;20828;-59
2023/02/03 04:30:43;;;;;;;12.63;4.17;;;9.60;99.90;;;;;;5096578;28;20451;-59
2023/02/03 04:33:09;;;;;;;10.20;4.20;;;9.60;99.90;;;;;;5096339;28;20862;-59
2023/02/03 04:35:36;;;;;;;8.50;4.13;;;9.60;99.90;;;;;;5096813;28;20451;-59
2023/02/03 04:38:03;;;;;;;9.80;4.80;;;9.60;99.90;;;;;;5096626;28;20458;-59
2023/02/03 04:40:32;;;;;;;11.10;3.63;;;9.60;99.90;;;;;;5096212;28;20850;-58
2023/02/03 04:42:58;;;;;;;10.10;4.37;;;9.60;99.90;;;;;;5096423;28;20424;-57
2023/02/03 04:45:25;;;;;;;7.93;4.30;;;9.60;99.90;;;;;;5096003;28;20796;-58
2023/02/03 04:47:52;;;;;;;8.83;4.07;;;9.60;99.90;;;;;;5096520;28;20796;-58
2023/02/03 04:50:19;;;;;;;10.13;5.10;;;9.60;99.90;;;;;;5097122;28;20482;-59
2023/02/03 04:52:47;;;;;;;11.10;3.90;;;9.60;99.90;;;;;;5096737;28;20490;-59
2023/02/03 04:55:13;;;;;;;11.40;4.63;;;9.60;99.90;;;;;;5096356;28;20852;-58
2023/02/03 04:57:41;;;;;;;8.20;4.70;;;9.60;99.90;;;;;;5096978;28;20448;-59
2023/02/03 05:00:09;;;;;;;9.10;4.90;;;9.60;99.90;;;;;;5097206;28;20440;-59
2023/02/03 05:02:36;;;;;;;10.70;3.90;;;9.60;99.90;;;;;;5097773;28;20470;-59
2023/02/03 05:05:03;;;;;;;9.57;4.50;;;9.60;99.90;;;;;;5097900;28;20472;-58
2023/02/03 05:07:29;;;;;;;9.30;4.30;;;9.60;99.90;;;;;;5096461;28;20452;-59
2023/02/03 05:09:56;;;;;;;8.90;4.97;;;9.70;99.90;;;;;;5096069;28;20461;-59
2023/02/03 05:12:23;;;;;;;5.10;3.63;;;9.60;99.90;;;;;;5095735;28;20463;-57
2023/02/03 05:14:52;;;;;;;5.93;3.57;;;9.70;99.90;;;;;;5108764;28;20486;-58
2023/02/03 05:17:18;;;;;;;10.77;5.00;;;9.70;99.90;;;;;;5117285;28;20438;-59
2023/02/03 05:19:45;;;;;;;12.60;3.40;;;9.70;99.90;;;;;;5117913;28;20783;-58
2023/02/03 05:22:12;;;;;;;7.80;3.40;;;9.70;99.90;;;;;;5117022;28;20447;-58
2023/02/03 05:24:38;;;;;;;15.03;4.80;;;9.70;99.90;;;;;;5116881;28;20475;-59
2023/02/03 05:27:05;;;;;;;5.33;2.90;;;9.70;99.90;;;;;;5116520;28;20965;-59
2023/02/03 05:29:32;;;;;;;13.20;3.60;;;9.70;99.90;;;;;;5116098;28;20424;-59
2023/02/03 05:32:00;;;;;;;3.87;3.50;;;9.70;99.90;;;;;;5116092;28;20447;-59
2023/02/03 05:34:27;;;;;;;5.70;3.23;;;9.70;99.90;;;;;;5116193;28;20483;-58
2023/02/03 05:36:53;;;;;;;10.43;3.50;;;9.70;99.90;;;;;;5116052;28;20458;-58
2023/02/03 05:39:20;;;;;;;13.97;3.03;;;9.70;99.90;;;;;;5115746;28;20818;-59
2023/02/03 05:41:52;;;;;;;6.87;2.70;;;9.70;99.90;;;;;;5115611;28;20457;-59
2023/02/03 05:44:19;;;;;;;7.03;3.13;;;9.70;99.90;;;;;;5115476;28;20800;-58
2023/02/03 05:46:46;;;;;;;6.47;3.10;;;9.70;99.90;;;;;;5116017;28;20450;-59
2023/02/03 05:49:14;;;;;;;8.00;2.90;;;9.70;99.90;;;;;;5115579;28;20430;-59
2023/02/03 05:51:41;;;;;;;6.33;2.87;;;9.70;99.90;;;;;;5114160;28;20423;-59
2023/02/03 05:54:08;;;;;;;6.90;2.67;;;9.70;99.90;;;;;;5115351;28;20846;-58
2023/02/03 05:56:35;;;;;;;10.63;2.67;;;9.70;99.90;;;;;;5115514;28;20525;-59
2023/02/03 05:59:01;;;;;;;5.67;2.60;;;9.70;99.90;;;;;;5115069;28;20499;-59
2023/02/03 06:01:28;;;;;;;6.00;2.97;;;9.70;99.90;;;;;;5115261;28;20450;-59
2023/02/03 06:03:55;;;;;;;7.67;2.20;;;9.60;99.90;;;;;;5115114;28;20474;-58
2023/02/03 06:06:23;;;;;;;7.10;2.67;;;9.70;99.90;;;;;;5115037;28;20950;-58
2023/02/03 06:08:55;;;;;;;3.80;2.37;;;9.60;99.90;;;;;;5114752;28;20462;-59
2023/02/03 06:11:23;;;;;;;7.97;2.00;;;9.70;99.90;;;;;;5115221;28;20430;-59
2023/02/03 06:13:50;;;;;;;12.40;2.63;;;9.70;99.90;;;;;;5114490;28;20584;-59
2023/02/03 06:16:17;;;;;;;8.50;2.90;;;9.70;99.90;;;;;;5114505;28;20443;-59
2023/02/03 06:18:44;;;;;;;12.37;1.93;;;9.70;99.90;;;;;;5114746;28;20474;-59
2023/02/03 06:21:10;;;;;;;5.10;2.30;;;9.70;99.90;;;;;;5114751;28;20447;-59
2023/02/03 06:23:38;;;;;;;8.50;2.00;;;9.70;99.90;;;;;;5114862;27;20467;-59
2023/02/03 06:26:05;;;;;;;6.70;2.13;;;9.70;99.90;;;;;;5114577;28;20458;-59
2023/02/03 06:28:32;;;;;;;10.53;3.20;;;9.70;99.90;;;;;;5114451;28;20442;-59
2023/02/03 06:30:59;;;;;;;4.33;2.40;;;9.70;99.90;;;;;;5114514;28;20455;-59
2023/02/03 06:33:26;;;;;;;9.07;2.20;;;9.80;99.90;;;;;;5114344;28;20490;-59
2023/02/03 06:35:54;;;;;;;7.43;2.30;;;9.80;99.90;;;;;;5114401;28;20431;-59
2023/02/03 06:38:20;;;;;;;7.20;2.77;;;9.70;99.90;;;;;;5114400;28;20446;-59
2023/02/03 06:40:48;;;;;;;4.10;1.80;;;9.70;99.90;;;;;;5113902;28;20458;-59
2023/02/03 06:43:16;;;;;;;7.00;2.70;;;9.70;99.90;;;;;;5114183;28;20831;-58
2023/02/03 06:45:46;;;;;;;5.37;2.63;;;9.70;99.90;;;;;;5113880;28;20478;-59
2023/02/03 06:48:13;;;;;;;6.07;1.77;;;9.70;99.90;;;;;;5114146;28;20435;-59
2023/02/03 06:50:40;;;;;;;8.80;2.50;;;9.70;99.90;;;;;;5113843;28;20951;-59
2023/02/03 06:53:06;;;;;;;5.93;1.97;;;9.70;99.90;;;;;;5113950;28;20494;-58
2023/02/03 06:55:33;;;;;;;7.57;2.10;;;9.70;99.90;;;;;;5114601;28;20435;-58
2023/02/03 06:58:01;;;;;;;7.90;1.87;;;9.80;99.90;;;;;;5115142;28;20465;-59
2023/02/03 07:00:28;;;;;;;6.67;2.13;;;9.70;99.90;;;;;;5114020;28;20450;-59
2023/02/03 07:02:56;;;;;;;6.70;2.50;;;9.70;99.90;;;;;;5113546;28;20458;-58
2023/02/03 07:05:23;;;;;;;8.30;2.60;;;9.70;99.90;;;;;;5113936;28;20455;-58
2023/02/03 07:07:50;;;;;;;8.00;2.50;;;9.70;99.90;;;;;;5113984;28;20458;-58
2023/02/03 07:10:17;;;;;;;8.70;2.80;;;9.80;99.90;;;;;;5113567;28;20455;-58
2023/02/03 07:12:44;;;;;;;3.00;1.70;;;9.70;99.90;;;;;;5113752;28;20454;-58
2023/02/03 07:15:12;;;;;;;9.17;2.60;;;9.70;99.90;;;;;;5113815;28;20442;-58
2023/02/03 07:17:39;;;;;;;7.00;1.93;;;9.70;99.90;;;;;;5113869;28;20447;-58
2023/02/03 07:20:06;;;;;;;6.00;2.00;;;9.70;99.90;;;;;;5113783;28;20458;-58
2023/02/03 07:22:35;;;;;;;8.03;2.10;;;9.70;99.90;;;;;;5113877;28;20423;-58
2023/02/03 07:25:01;;;;;;;5.13;2.70;;;9.70;99.90;;;;;;5113455;28;20466;-58
2023/02/03 07:27:29;;;;;;;5.97;1.97;;;9.70;99.90;;;;;;5113785;28;20447;-58
2023/02/03 07:29:56;;;;;;;3.20;1.43;;;9.80;99.90;;;;;;5113911;28;20880;-58
2023/02/03 07:32:24;;;;;;;4.50;1.93;;;9.80;99.90;;;;;;5112182;28;20943;-57
2023/02/03 07:34:51;;;;;;;6.83;1.87;;;9.80;99.90;;;;;;5113232;28;20491;-58
2023/02/03 07:37:17;;;;;;;8.73;2.70;;;9.80;99.90;;;;;;5113699;28;20442;-58
2023/02/03 07:39:44;;;;;;;5.13;1.87;;;9.80;99.90;;;;;;5113604;28;20453;-58
2023/02/03 07:42:11;;;;;;;5.90;2.17;;;9.80;99.90;;;;;;5113571;28;20442;-57
2023/02/03 07:44:38;;;;;;;5.63;2.83;;;9.80;99.90;;;;;;5113558;28;20889;-57
2023/02/03 07:47:05;;;;;;;8.00;1.83;;;9.80;99.90;;;;;;5113596;28;20454;-58
2023/02/03 07:49:33;;;;;;;2.93;1.70;;;9.90;99.90;;;;;;5113329;28;20974;-58
2023/02/03 07:51:59;;;;;;;4.00;1.70;;;9.80;99.90;;;;;;5114914;28;20950;-57
2023/02/03 07:54:26;;;;;;;9.10;2.23;;;9.90;99.90;;;;;;5117090;28;20491;-57
2023/02/03 07:56:53;;;;;;;3.87;1.73;;;9.90;99.90;;;;;;5117465;28;20478;-58
2023/02/03 07:59:20;;;;;;;4.70;1.70;;;9.90;99.90;;;;;;5117460;28;20430;-58
2023/02/03 08:01:47;;;;;;;9.50;2.30;;;9.90;99.90;;;;;;5117336;28;20453;-58
2023/02/03 08:04:15;;;;;;;4.17;2.40;;;9.90;99.90;;;;;;5117041;28;20570;-57
2023/02/03 08:06:43;;;;;;;4.33;1.60;;;9.90;99.90;;;;;;5117011;28;20920;-58
2023/02/03 08:09:10;;;;;;;6.00;2.03;;;9.80;99.90;;;;;;5116874;28;20485;-58
2023/02/03 08:11:37;;;;;;;2.80;1.80;;;9.80;99.90;;;;;;5117123;28;20447;-57
2023/02/03 08:14:04;;;;;;;5.97;2.40;;;9.70;99.90;;;;;;5109478;28;20483;-57
2023/02/03 08:16:30;;;;;;;11.13;2.57;;;9.70;99.90;;;;;;5096666;28;20444;-58
2023/02/03 08:18:57;;;;;;;6.90;2.50;;;9.70;99.90;;;;;;5096667;28;20501;-58
2023/02/03 08:21:24;;;;;;;2.20;2.00;;;9.70;99.90;;;;;;5095058;28;20936;-57
2023/02/03 08:23:52;;;;;;;6.70;2.03;;;9.80;99.90;;;;;;5096159;28;20460;-58
2023/02/03 08:26:19;;;;;;;4.97;1.70;;;9.80;99.90;;;;;;5096152;28;20966;-58
2023/02/03 08:28:49;;;;;;;4.67;2.77;;;9.80;99.90;;;;;;5096523;28;20458;-58
2023/02/03 08:31:17;;;;;;;3.00;2.27;;;9.90;99.90;;;;;;5096410;28;20475;-57
2023/02/03 08:33:43;;;;;;;9.90;2.10;;;9.90;99.90;;;;;;5096175;28;20483;-58
2023/02/03 08:36:11;;;;;;;8.83;2.23;;;10.00;99.90;;;;;;5096143;28;20448;-58
2023/02/03 08:38:37;;;;;;;5.30;1.60;;;10.00;99.90;;;;;;5095785;28;20483;-62
2023/02/03 08:41:10;;;;;;;6.33;2.30;;;10.00;99.90;;;;;;5096043;28;20452;-58
2023/02/03 08:43:37;;;;;;;5.43;1.50;;;10.00;99.90;;;;;;5095989;28;20468;-58
2023/02/03 08:46:05;;;;;;;4.60;1.67;;;10.00;99.90;;;;;;5096061;28;20455;-58
2023/02/03 08:48:32;;;;;;;3.20;1.60;;;10.00;99.90;;;;;;5096070;28;20452;-58
2023/02/03 08:50:59;;;;;;;6.67;2.50;;;10.00;99.90;;;;;;5095972;28;20428;-58
2023/02/03 08:53:26;;;;;;;5.70;2.50;;;10.00;99.90;;;;;;5095846;28;20834;-58
2023/02/03 08:55:53;;;;;;;3.27;2.10;;;10.00;99.90;;;;;;5095832;28;20474;-57
2023/02/03 08:58:22;;;;;;;10.83;2.73;;;10.10;99.90;;;;;;5095913;28;20439;-57
2023/02/03 09:00:51;;;;;;;7.20;2.07;;;10.00;99.90;;;;;;5094703;28;20448;-58
2023/02/03 09:03:18;;;;;;;6.53;2.03;;;10.10;99.90;;;;;;5094977;28;21002;-57
2023/02/03 09:05:45;;;;;;;4.63;2.40;;;10.00;99.90;;;;;;5095415;28;20456;-58
2023/02/03 09:08:12;;;;;;;7.20;2.10;;;10.00;99.90;;;;;;5095496;28;20451;-58
2023/02/03 09:10:38;;;;;;;5.47;2.47;;;10.00;99.90;;;;;;5095647;28;20439;-58
2023/02/03 09:13:05;;;;;;;6.93;2.90;;;9.90;99.90;;;;;;5095497;28;20500;-57
2023/02/03 09:15:33;;;;;;;6.30;2.20;;;9.90;99.90;;;;;;5095490;28;20506;-58
2023/02/03 09:18:00;;;;;;;5.50;2.20;;;9.90;99.90;;;;;;5094347;28;20455;-58
2023/02/03 09:20:27;;;;;;;2.87;2.13;;;10.00;99.90;;;;;;5095447;28;20509;-58
2023/02/03 09:22:54;;;;;;;4.97;2.40;;;9.90;99.90;;;;;;5093885;28;20887;-58
2023/02/03 09:25:21;;;;;;;5.33;2.60;;;9.90;99.90;;;;;;5095359;28;20463;-58
2023/02/03 09:27:48;;;;;;;7.47;3.20;;;9.80;99.90;;;;;;5095310;28;20476;-58
2023/02/03 09:30:15;;;;;;;3.80;2.63;;;9.80;99.90;;;;;;5095634;28;20428;-58
2023/02/03 09:32:43;;;;;;;7.60;2.83;;;9.80;99.90;;;;;;5095145;28;20452;-58
2023/02/03 09:35:10;;;;;;;3.90;2.90;;;9.80;99.90;;;;;;5095685;28;20474;-58
2023/02/03 09:37:37;;;;;;;7.30;3.17;;;9.80;99.90;;;;;;5095313;28;20780;-58
2023/02/03 09:40:04;;;;;;;7.40;3.70;;;9.80;99.90;;;;;;5095073;28;20448;-58
2023/02/03 09:42:53;;;;;;;4.43;2.40;;;9.70;99.90;;;;;;5094564;28;20474;-57
2023/02/03 09:45:25;;;;;;;5.00;3.20;;;9.70;99.90;;;;;;5094520;28;20428;-57
2023/02/03 09:47:58;;;;;;;8.73;3.70;;;9.70;99.90;;;;;;5094963;28;20463;-58
2023/02/03 09:50:27;;;;;;;6.47;4.13;;;9.80;99.90;;;;;;5094893;28;20440;-58
2023/02/03 09:52:56;;;;;;;6.23;3.63;;;9.80;99.90;;;;;;5094736;28;20440;-58
2023/02/03 09:55:32;;;;;;;6.33;4.10;;;9.80;99.90;;;;;;5094405;28;20464;-57
2023/02/03 09:58:04;;;;;;;9.70;3.67;;;9.70;99.90;;;;;;5094772;28;20434;-58
2023/02/03 10:00:35;;;;;;;6.57;3.87;;;9.70;99.90;;;;;;5094366;28;20912;-56
2023/02/03 10:03:11;;;;;;;9.23;3.90;;;9.70;99.90;;;;;;5094560;28;20436;-58
2023/02/03 10:05:50;;;;;;;6.97;4.90;;;9.70;99.90;;;;;;5094586;28;20431;-58
2023/02/03 10:08:27;;;;;;;6.13;4.87;;;9.70;99.90;;;;;;5094441;28;20436;-58
2023/02/03 10:11:09;;;;;;;6.80;4.37;;;9.70;99.90;;;;;;5094306;28;20925;-58
2023/02/03 10:13:43;;;;;;;6.20;4.37;;;9.70;99.90;;;;;;5094012;28;20869;-56
2023/02/03 10:16:31;;;;;;;9.60;4.90;;;9.60;99.90;;;;;;5094204;28;20436;-58
2023/02/03 10:19:03;;;;;;;6.67;5.37;;;9.60;99.90;;;;;;5094004;28;20912;-58
2023/02/03 10:21:35;;;;;;;10.30;5.53;;;9.60;99.90;;;;;;5094384;28;20436;-58
2023/02/03 10:24:07;;;;;;;6.27;5.67;;;9.60;99.90;;;;;;5092956;28;20468;-58
2023/02/03 10:26:33;;;;;;;9.10;5.90;;;9.60;99.90;;;;;;5093957;28;20532;-59
2023/02/03 10:29:05;;;;;;;9.17;6.40;;;9.60;99.90;;;;;;5094211;28;20432;-57
2023/02/03 10:31:36;;;;;;;8.60;6.40;;;9.60;99.90;;;;;;5094074;28;20440;-57
2023/02/03 10:34:11;;;;;;;10.13;7.37;;;9.50;99.90;;;;;;5094023;28;20492;-58
2023/02/03 10:36:52;;;;;;;10.07;7.03;;;9.60;99.90;;;;;;5094254;28;20442;-58
2023/02/03 10:39:27;;;;;;;12.67;7.37;;;9.50;99.90;;;;;;5093896;28;20427;-58
2023/02/03 10:41:54;;;;;;;13.40;7.40;;;9.50;99.90;;;;;;5093827;28;20440;-57
2023/02/03 10:44:25;;;;;;;8.93;8.00;;;9.60;99.90;;;;;;5093629;28;20471;-57
2023/02/03 10:46:52;;;;;;;8.60;7.80;;;9.60;99.90;;;;;;5093752;28;20439;-57
2023/02/03 10:49:21;;;;;;;13.53;8.47;;;9.60;99.90;;;;;;5093898;28;20456;-58
2023/02/03 10:51:51;;;;;;;10.90;8.50;;;9.60;99.90;;;;;;5093950;28;20487;-58
2023/02/03 10:54:30;;;;;;;13.03;8.70;;;9.60;99.90;;;;;;5094048;28;20846;-58
2023/02/03 10:57:03;;;;;;;12.60;8.73;;;9.50;99.90;;;;;;5093912;28;20431;-57
2023/02/03 10:59:33;;;;;;;8.50;7.10;;;9.60;99.90;;;;;;5093890;28;20451;-57
2023/02/03 11:02:00;;;;;;;9.97;8.03;;;9.70;99.90;;;;;;5093226;28;20444;-59
2023/02/03 11:04:32;;;;;;;11.60;7.53;;;9.70;99.90;;;;;;5093750;28;20862;-57
2023/02/03 11:07:01;;;;;;;13.70;8.97;;;9.70;99.90;;;;;;5093800;28;20799;-57
2023/02/03 11:09:32;;;;;;;14.93;9.47;;;9.70;99.90;;;;;;5093398;28;20451;-58
2023/02/03 11:12:14;;;;;;;12.07;10.20;;;9.80;99.90;;;;;;5093657;28;20436;-58
2023/02/03 11:14:43;;;;;;;12.70;8.73;;;9.80;99.90;;;;;;5104907;28;20493;-57
2023/02/03 11:17:15;;;;;;;11.60;9.63;;;9.90;99.90;;;;;;5113701;28;20443;-58
2023/02/03 11:19:45;;;;;;;20.03;10.03;;;9.90;99.90;;;;;;5113958;28;20431;-58
2023/02/03 11:22:13;;;;;;;11.57;9.20;;;9.90;99.90;;;;;;5113899;28;20486;-58
2023/02/03 11:24:44;;;;;;;13.17;9.33;;;9.90;99.90;;;;;;5113781;28;20474;-58
2023/02/03 11:27:14;;;;;;;10.60;9.20;;;10.00;99.90;;;;;;5117874;28;20427;-57
2023/02/03 11:29:44;;;;;;;15.73;9.80;;;10.00;99.90;;;;;;5118495;28;20423;-57
2023/02/03 11:32:18;;;;;;;12.57;9.50;;;10.00;99.90;;;;;;5118293;28;20504;-58
2023/02/03 11:34:59;;;;;;;18.03;8.40;;;10.00;99.90;;;;;;5118121;28;20486;-58
2023/02/03 11:37:29;;;;;;;17.87;11.27;;;10.00;99.90;;;;;;5118338;28;20434;-57
2023/02/03 11:39:56;;;;;;;11.63;9.83;;;10.00;99.90;;;;;;5118777;28;20474;-58
2023/02/03 11:42:24;;;;;;;15.53;10.20;;;10.00;99.90;;;;;;5118763;28;20977;-56
2023/02/03 11:44:52;;;;;;;19.13;11.33;;;10.00;99.90;;;;;;5119814;28;20462;-57
2023/02/03 11:47:19;;;;;;;13.00;9.63;;;10.00;99.90;;;;;;5119075;28;20450;-57
2023/02/03 11:50:15;;;;;;;10.80;9.33;;;10.00;99.90;;;;;;5118947;28;20446;-58
2023/02/03 11:52:56;;;;;;;12.70;10.50;;;10.00;99.90;;;;;;5117714;28;20818;-57
2023/02/03 11:55:33;;;;;;;10.63;8.70;;;10.00;99.90;;;;;;5117624;28;20466;-58
2023/02/03 11:58:22;;;;;;;11.50;10.23;;;10.00;99.90;;;;;;5118093;28;20794;-58
2023/02/03 12:00:58;;;;;;;13.70;10.10;;;10.00;99.90;;;;;;5118517;28;20431;-58
2023/02/03 12:03:57;;;;;;;10.17;8.43;;;10.00;99.90;;;;;;5117481;28;20467;-58
2023/02/03 12:06:41;;;;;;;18.13;9.57;;;10.10;99.90;;;;;;5116986;28;20431;-57
2023/02/03 12:09:23;;;;;;;9.93;8.80;;;10.00;99.90;;;;;;5116926;28;20944;-58
2023/02/03 12:12:17;;;;;;;11.63;10.53;;;10.10;99.90;;;;;;5115977;28;20427;-58
2023/02/03 12:14:55;;;;;;;9.50;8.57;;;10.10;99.90;;;;;;5116767;28;20585;-57
2023/02/03 12:17:40;;;;;;;11.60;9.43;;;10.10;99.90;;;;;;5117200;28;20434;-58
2023/02/03 12:20:26;;;;;;;12.20;9.57;;;10.10;99.90;;;;;;5116995;28;20439;-57
2023/02/03 12:23:06;;;;;;;11.53;9.63;;;10.20;99.90;;;;;;5116909;28;20431;-57
2023/02/03 12:25:44;;;;;;;12.60;9.60;;;10.20;99.90;;;;;;5116960;28;20456;-58
2023/02/03 12:28:24;;;;;;;13.03;9.40;;;10.20;99.90;;;;;;5117484;28;20431;-58
2023/02/03 12:30:55;;;;;;;14.77;10.70;;;10.20;99.90;;;;;;5116883;28;20446;-58
2023/02/03 12:33:27;;;;;;;11.67;9.00;;;10.20;99.90;;;;;;5116755;28;20481;-58
2023/02/03 12:35:59;;;;;;;10.87;9.37;;;10.30;99.90;;;;;;5116639;28;20477;-58
2023/02/03 12:38:36;;;;;;;11.30;8.60;;;10.30;99.90;;;;;;5115707;28;20938;-58
2023/02/03 12:41:11;;;;;;;9.10;8.20;;;10.40;99.90;;;;;;5116564;28;20431;-57
2023/02/03 12:43:41;;;;;;;13.47;8.77;;;10.40;99.90;;;;;;5115386;28;20466;-58
2023/02/03 12:46:15;;;;;;;9.20;8.30;;;10.40;99.90;;;;;;5116570;28;20514;-58
2023/02/03 12:48:48;;;;;;;10.70;7.83;;;10.40;99.90;;;;;;5116585;28;20427;-58
2023/02/03 12:51:24;;;;;;;9.27;7.43;;;10.40;99.90;;;;;;5116485;28;20431;-59
2023/02/03 12:53:59;;;;;;;10.77;7.90;;;10.50;99.90;;;;;;5115984;28;20469;-58
2023/02/03 12:56:33;;;;;;;11.73;7.80;;;10.50;99.90;;;;;;5116330;28;20470;-59
2023/02/03 12:59:05;;;;;;;10.30;6.90;;;10.50;99.90;;;;;;5116422;28;20435;-58
2023/02/03 13:01:36;;;;;;;9.47;6.53;;;10.50;99.90;;;;;;5116235;28;20438;-58
2023/02/03 13:04:08;;;;;;;6.57;5.97;;;10.60;99.90;;;;;;5116292;28;20474;-58
2023/02/03 13:06:43;;;;;;;9.90;6.10;;;10.60;99.90;;;;;;5116198;28;20790;-58